Terminal Aerodrome Forecast
Issued by NWS

Home | Current Version | Previous Version | Text Only | Print | Product List | Glossary On
Versions: 1 2 3 4 5 6 7 8 9 10 11 12 13 14 15 16 17 18 19 20 21 22 23 24 25 26 27 28 29 30 31
000
FTUS46 KOTX 020541
TAFCOE
TAF
KCOE 020541Z 0206/0306 17022G29KT 2SM TSRA SCT006 OVC014CB
     FM020700 18007KT P6SM VCSH BKN070 BKN120
     FM021400 20006KT P6SM -SHRA SCT020 BKN050 OVC080
     FM022200 19008KT P6SM VCSH SCT050 BKN080
      AMD LTD TO CLD AND VIS=

USA.gov is the U.S. government's official web portal to all federal, state and local government web resources and services.